KHII/HII METAR and TAF weather

Enter ICAO airport designator
Station Type Date Time Source
KHII METAR 2019/10/11 08:50 UTC NOAA

KHII 110850Z AUTO 33012G15KT 10SM CLR 16/M12 A3004 RMK AO2


Station Type Date Time Source
KHII Decoded METAR 2019/10/11 08:50 UTC NOAA

Station name not available
Oct 11, 2019 - 04:50 AM EDT / 2019.10.11 0850 UTC
Wind: from the NNW (330 degrees) at 14 MPH (12 KT) gusting to 17 MPH (15 KT):0
Visibility: 10 mile(s):0
Sky conditions: clear
Temperature: 60 F (16 C)
Dew Point: 10 F (-12 C)
Relative Humidity: 13%
Pressure (altimeter): 30.04 in. Hg (1017 hPa)
ob: KHII 110850Z AUTO 33012G15KT 10SM CLR 16/M12 A3004 RMK AO2
cycle: 9

Station Type Date Time Source
KHII TAF UTC NOAA

Error!

Example: see airport list